sensor_id;sensor_type;location;lat;lon;timestamp;P1;durP1;ratioP1;P2;durP2;ratioP2
5279;SDS011;2663;53.588;10.010;2023-07-29T00:01:28;5.77;;;5.13;;
5279;SDS011;2663;53.588;10.010;2023-07-29T00:03:55;6.20;;;4.83;;
5279;SDS011;2663;53.588;10.010;2023-07-29T00:06:22;8.00;;;6.20;;
5279;SDS011;2663;53.588;10.010;2023-07-29T00:08:49;10.37;;;5.43;;
5279;SDS011;2663;53.588;10.010;2023-07-29T00:11:16;7.70;;;5.60;;
5279;SDS011;2663;53.588;10.010;2023-07-29T00:13:43;8.33;;;6.10;;
5279;SDS011;2663;53.588;10.010;2023-07-29T00:16:10;8.83;;;6.40;;
5279;SDS011;2663;53.588;10.010;2023-07-29T00:18:37;130.77;;;71.13;;
5279;SDS011;2663;53.588;10.010;2023-07-29T00:21:03;13.43;;;8.20;;
5279;SDS011;2663;53.588;10.010;2023-07-29T00:23:30;9.20;;;5.30;;
5279;SDS011;2663;53.588;10.010;2023-07-29T00:25:57;9.90;;;5.03;;
5279;SDS011;2663;53.588;10.010;2023-07-29T00:28:24;8.53;;;5.70;;
5279;SDS011;2663;53.588;10.010;2023-07-29T00:30:50;7.73;;;5.87;;
5279;SDS011;2663;53.588;10.010;2023-07-29T00:33:17;8.17;;;6.10;;
5279;SDS011;2663;53.588;10.010;2023-07-29T00:35:44;73.93;;;42.30;;
5279;SDS011;2663;53.588;10.010;2023-07-29T00:38:10;26.67;;;15.13;;
5279;SDS011;2663;53.588;10.010;2023-07-29T00:40:37;12.13;;;6.70;;
5279;SDS011;2663;53.588;10.010;2023-07-29T00:43:04;9.90;;;6.93;;
5279;SDS011;2663;53.588;10.010;2023-07-29T00:45:31;11.03;;;6.17;;
5279;SDS011;2663;53.588;10.010;2023-07-29T00:48:02;7.90;;;6.83;;
5279;SDS011;2663;53.588;10.010;2023-07-29T00:50:30;10.13;;;7.13;;
5279;SDS011;2663;53.588;10.010;2023-07-29T00:52:58;12.83;;;6.37;;
5279;SDS011;2663;53.588;10.010;2023-07-29T00:55:25;8.07;;;6.20;;
5279;SDS011;2663;53.588;10.010;2023-07-29T00:57:51;112.73;;;65.17;;
5279;SDS011;2663;53.588;10.010;2023-07-29T01:00:21;51.73;;;32.17;;
5279;SDS011;2663;53.588;10.010;2023-07-29T01:02:48;54.13;;;36.37;;
5279;SDS011;2663;53.588;10.010;2023-07-29T01:05:16;35.70;;;21.30;;
5279;SDS011;2663;53.588;10.010;2023-07-29T01:07:49;9.43;;;7.53;;
5279;SDS011;2663;53.588;10.010;2023-07-29T01:14:34;9.40;;;5.80;;
5279;SDS011;2663;53.588;10.010;2023-07-29T01:17:13;10.10;;;6.97;;
5279;SDS011;2663;53.588;10.010;2023-07-29T01:19:55;16.30;;;6.23;;
5279;SDS011;2663;53.588;10.010;2023-07-29T01:22:34;10.27;;;5.97;;
5279;SDS011;2663;53.588;10.010;2023-07-29T01:25:02;9.00;;;5.77;;
5279;SDS011;2663;53.588;10.010;2023-07-29T01:27:32;8.10;;;6.00;;
5279;SDS011;2663;53.588;10.010;2023-07-29T01:29:59;6.90;;;6.00;;
5279;SDS011;2663;53.588;10.010;2023-07-29T01:35:08;10.77;;;6.00;;
5279;SDS011;2663;53.588;10.010;2023-07-29T01:37:41;7.83;;;6.50;;
5279;SDS011;2663;53.588;10.010;2023-07-29T01:40:14;9.00;;;5.53;;
5279;SDS011;2663;53.588;10.010;2023-07-29T01:42:41;26.87;;;19.80;;
5279;SDS011;2663;53.588;10.010;2023-07-29T01:45:08;160.87;;;99.53;;
5279;SDS011;2663;53.588;10.010;2023-07-29T01:47:35;24.37;;;15.40;;
5279;SDS011;2663;53.588;10.010;2023-07-29T01:50:03;8.10;;;6.63;;
5279;SDS011;2663;53.588;10.010;2023-07-29T01:52:30;9.37;;;7.60;;
5279;SDS011;2663;53.588;10.010;2023-07-29T01:54:56;9.90;;;7.00;;
5279;SDS011;2663;53.588;10.010;2023-07-29T01:57:23;10.13;;;6.80;;
5279;SDS011;2663;53.588;10.010;2023-07-29T01:59:50;18.30;;;9.53;;
5279;SDS011;2663;53.588;10.010;2023-07-29T02:02:17;23.17;;;8.93;;
5279;SDS011;2663;53.588;10.010;2023-07-29T02:04:43;20.20;;;8.30;;
5279;SDS011;2663;53.588;10.010;2023-07-29T02:07:11;76.07;;;39.33;;
5279;SDS011;2663;53.588;10.010;2023-07-29T02:09:38;26.57;;;18.07;;
5279;SDS011;2663;53.588;10.010;2023-07-29T02:12:05;10.70;;;8.77;;
5279;SDS011;2663;53.588;10.010;2023-07-29T02:14:33;11.73;;;9.57;;
5279;SDS011;2663;53.588;10.010;2023-07-29T02:17:00;17.00;;;8.80;;
5279;SDS011;2663;53.588;10.010;2023-07-29T02:19:27;11.83;;;8.83;;
5279;SDS011;2663;53.588;10.010;2023-07-29T02:21:53;11.77;;;9.50;;
5279;SDS011;2663;53.588;10.010;2023-07-29T02:24:20;13.63;;;9.20;;
5279;SDS011;2663;53.588;10.010;2023-07-29T02:26:47;12.20;;;9.47;;
5279;SDS011;2663;53.588;10.010;2023-07-29T02:29:14;11.97;;;9.77;;
5279;SDS011;2663;53.588;10.010;2023-07-29T02:31:40;13.33;;;10.53;;
5279;SDS011;2663;53.588;10.010;2023-07-29T02:34:07;24.40;;;18.07;;
5279;SDS011;2663;53.588;10.010;2023-07-29T02:36:34;14.03;;;11.40;;
5279;SDS011;2663;53.588;10.010;2023-07-29T02:39:01;19.97;;;10.73;;
5279;SDS011;2663;53.588;10.010;2023-07-29T02:41:28;12.77;;;11.07;;
5279;SDS011;2663;53.588;10.010;2023-07-29T02:43:54;17.00;;;12.37;;
5279;SDS011;2663;53.588;10.010;2023-07-29T02:46:21;20.17;;;11.80;;
5279;SDS011;2663;53.588;10.010;2023-07-29T02:48:48;17.07;;;12.97;;
5279;SDS011;2663;53.588;10.010;2023-07-29T02:51:15;17.10;;;13.73;;
5279;SDS011;2663;53.588;10.010;2023-07-29T02:53:42;13.27;;;11.20;;
5279;SDS011;2663;53.588;10.010;2023-07-29T02:56:08;14.73;;;12.10;;
5279;SDS011;2663;53.588;10.010;2023-07-29T02:58:36;17.23;;;12.93;;
5279;SDS011;2663;53.588;10.010;2023-07-29T03:01:04;17.53;;;12.17;;
5279;SDS011;2663;53.588;10.010;2023-07-29T03:03:32;16.30;;;10.47;;
5279;SDS011;2663;53.588;10.010;2023-07-29T03:06:03;14.43;;;11.77;;
5279;SDS011;2663;53.588;10.010;2023-07-29T03:08:32;12.07;;;10.87;;
5279;SDS011;2663;53.588;10.010;2023-07-29T03:10:58;12.57;;;11.37;;
5279;SDS011;2663;53.588;10.010;2023-07-29T03:13:31;15.00;;;11.40;;
5279;SDS011;2663;53.588;10.010;2023-07-29T03:16:16;13.20;;;11.73;;
5279;SDS011;2663;53.588;10.010;2023-07-29T03:18:44;15.80;;;12.00;;
5279;SDS011;2663;53.588;10.010;2023-07-29T03:21:11;14.50;;;11.40;;
5279;SDS011;2663;53.588;10.010;2023-07-29T03:23:38;13.23;;;11.83;;
5279;SDS011;2663;53.588;10.010;2023-07-29T03:26:04;15.50;;;12.40;;
5279;SDS011;2663;53.588;10.010;2023-07-29T03:28:38;13.63;;;11.87;;
5279;SDS011;2663;53.588;10.010;2023-07-29T03:31:09;14.00;;;11.27;;
5279;SDS011;2663;53.588;10.010;2023-07-29T03:33:36;15.90;;;11.30;;
5279;SDS011;2663;53.588;10.010;2023-07-29T03:36:03;14.80;;;12.60;;
5279;SDS011;2663;53.588;10.010;2023-07-29T03:38:30;16.57;;;12.70;;
5279;SDS011;2663;53.588;10.010;2023-07-29T03:40:59;13.30;;;11.90;;
5279;SDS011;2663;53.588;10.010;2023-07-29T03:43:25;13.00;;;11.10;;
5279;SDS011;2663;53.588;10.010;2023-07-29T03:45:52;14.10;;;12.40;;
5279;SDS011;2663;53.588;10.010;2023-07-29T03:48:19;15.70;;;12.10;;
5279;SDS011;2663;53.588;10.010;2023-07-29T03:50:45;13.13;;;11.40;;
5279;SDS011;2663;53.588;10.010;2023-07-29T03:53:12;15.20;;;13.03;;
5279;SDS011;2663;53.588;10.010;2023-07-29T03:55:39;14.33;;;12.27;;
5279;SDS011;2663;53.588;10.010;2023-07-29T03:58:05;15.90;;;13.90;;
5279;SDS011;2663;53.588;10.010;2023-07-29T04:00:32;13.87;;;11.83;;
5279;SDS011;2663;53.588;10.010;2023-07-29T04:02:59;13.80;;;12.40;;
5279;SDS011;2663;53.588;10.010;2023-07-29T04:05:26;14.83;;;12.87;;
5279;SDS011;2663;53.588;10.010;2023-07-29T04:07:53;14.37;;;12.83;;
5279;SDS011;2663;53.588;10.010;2023-07-29T04:10:20;17.40;;;14.37;;
5279;SDS011;2663;53.588;10.010;2023-07-29T04:12:47;21.37;;;12.63;;
5279;SDS011;2663;53.588;10.010;2023-07-29T04:15:14;20.97;;;13.43;;
5279;SDS011;2663;53.588;10.010;2023-07-29T04:17:40;22.93;;;13.97;;
5279;SDS011;2663;53.588;10.010;2023-07-29T04:20:07;25.07;;;16.03;;
5279;SDS011;2663;53.588;10.010;2023-07-29T04:22:35;17.53;;;14.20;;
5279;SDS011;2663;53.588;10.010;2023-07-29T04:25:01;24.97;;;17.80;;
5279;SDS011;2663;53.588;10.010;2023-07-29T04:27:30;28.13;;;22.17;;
5279;SDS011;2663;53.588;10.010;2023-07-29T04:29:57;35.43;;;26.00;;
5279;SDS011;2663;53.588;10.010;2023-07-29T04:32:24;31.70;;;24.30;;
5279;SDS011;2663;53.588;10.010;2023-07-29T04:34:52;57.70;;;34.30;;
5279;SDS011;2663;53.588;10.010;2023-07-29T04:37:18;56.97;;;36.20;;
5279;SDS011;2663;53.588;10.010;2023-07-29T04:39:45;59.97;;;38.43;;
5279;SDS011;2663;53.588;10.010;2023-07-29T04:42:12;66.67;;;38.87;;
5279;SDS011;2663;53.588;10.010;2023-07-29T04:44:39;70.10;;;40.80;;
5279;SDS011;2663;53.588;10.010;2023-07-29T04:47:08;64.83;;;39.93;;
5279;SDS011;2663;53.588;10.010;2023-07-29T04:49:34;62.90;;;40.00;;
5279;SDS011;2663;53.588;10.010;2023-07-29T04:52:01;57.90;;;38.00;;
5279;SDS011;2663;53.588;10.010;2023-07-29T04:54:28;68.80;;;39.77;;
5279;SDS011;2663;53.588;10.010;2023-07-29T04:56:54;67.43;;;39.30;;
5279;SDS011;2663;53.588;10.010;2023-07-29T04:59:21;71.53;;;41.83;;
5279;SDS011;2663;53.588;10.010;2023-07-29T05:01:48;60.00;;;38.33;;
5279;SDS011;2663;53.588;10.010;2023-07-29T05:04:15;64.63;;;41.50;;
5279;SDS011;2663;53.588;10.010;2023-07-29T05:06:42;75.03;;;41.07;;
5279;SDS011;2663;53.588;10.010;2023-07-29T05:09:13;65.73;;;41.03;;
5279;SDS011;2663;53.588;10.010;2023-07-29T05:11:40;74.63;;;41.80;;
5279;SDS011;2663;53.588;10.010;2023-07-29T05:14:07;69.60;;;40.80;;
5279;SDS011;2663;53.588;10.010;2023-07-29T05:16:35;65.13;;;41.20;;
5279;SDS011;2663;53.588;10.010;2023-07-29T05:19:02;65.20;;;39.57;;
5279;SDS011;2663;53.588;10.010;2023-07-29T05:21:29;61.13;;;38.80;;
5279;SDS011;2663;53.588;10.010;2023-07-29T05:23:56;60.80;;;38.60;;
5279;SDS011;2663;53.588;10.010;2023-07-29T05:26:23;61.63;;;40.10;;
5279;SDS011;2663;53.588;10.010;2023-07-29T05:28:50;55.87;;;36.77;;
5279;SDS011;2663;53.588;10.010;2023-07-29T05:31:16;64.47;;;39.17;;
5279;SDS011;2663;53.588;10.010;2023-07-29T05:33:43;61.33;;;37.00;;
5279;SDS011;2663;53.588;10.010;2023-07-29T05:36:10;66.47;;;38.17;;
5279;SDS011;2663;53.588;10.010;2023-07-29T05:38:37;56.53;;;36.90;;
5279;SDS011;2663;53.588;10.010;2023-07-29T05:41:04;57.27;;;36.10;;
5279;SDS011;2663;53.588;10.010;2023-07-29T05:43:30;50.90;;;33.57;;
5279;SDS011;2663;53.588;10.010;2023-07-29T05:45:57;51.30;;;35.07;;
5279;SDS011;2663;53.588;10.010;2023-07-29T05:48:24;62.37;;;38.80;;
5279;SDS011;2663;53.588;10.010;2023-07-29T05:50:50;60.40;;;35.30;;
5279;SDS011;2663;53.588;10.010;2023-07-29T05:53:17;53.97;;;36.93;;
5279;SDS011;2663;53.588;10.010;2023-07-29T05:55:44;55.63;;;36.80;;
5279;SDS011;2663;53.588;10.010;2023-07-29T05:58:10;54.17;;;36.67;;
5279;SDS011;2663;53.588;10.010;2023-07-29T06:00:37;53.07;;;35.40;;
5279;SDS011;2663;53.588;10.010;2023-07-29T06:03:04;53.10;;;34.43;;
5279;SDS011;2663;53.588;10.010;2023-07-29T06:05:31;55.57;;;38.17;;
5279;SDS011;2663;53.588;10.010;2023-07-29T06:07:57;55.70;;;36.53;;
5279;SDS011;2663;53.588;10.010;2023-07-29T06:10:24;52.63;;;38.20;;
5279;SDS011;2663;53.588;10.010;2023-07-29T06:12:51;56.30;;;40.43;;
5279;SDS011;2663;53.588;10.010;2023-07-29T06:15:17;52.27;;;39.87;;
5279;SDS011;2663;53.588;10.010;2023-07-29T06:17:48;61.40;;;37.70;;
5279;SDS011;2663;53.588;10.010;2023-07-29T06:20:15;53.70;;;36.70;;
5279;SDS011;2663;53.588;10.010;2023-07-29T06:22:42;52.87;;;36.87;;
5279;SDS011;2663;53.588;10.010;2023-07-29T06:25:09;52.57;;;36.57;;
5279;SDS011;2663;53.588;10.010;2023-07-29T06:27:36;54.57;;;37.07;;
5279;SDS011;2663;53.588;10.010;2023-07-29T06:30:03;52.10;;;34.70;;
5279;SDS011;2663;53.588;10.010;2023-07-29T06:32:30;55.30;;;35.60;;
5279;SDS011;2663;53.588;10.010;2023-07-29T06:34:56;52.73;;;35.20;;
5279;SDS011;2663;53.588;10.010;2023-07-29T06:37:23;46.53;;;33.70;;
5279;SDS011;2663;53.588;10.010;2023-07-29T06:39:50;52.10;;;34.83;;
5279;SDS011;2663;53.588;10.010;2023-07-29T06:42:16;54.10;;;35.80;;
5279;SDS011;2663;53.588;10.010;2023-07-29T06:44:43;47.63;;;32.90;;
5279;SDS011;2663;53.588;10.010;2023-07-29T06:47:12;48.50;;;35.20;;
5279;SDS011;2663;53.588;10.010;2023-07-29T06:49:38;41.37;;;32.60;;
5279;SDS011;2663;53.588;10.010;2023-07-29T06:52:05;45.70;;;31.43;;
5279;SDS011;2663;53.588;10.010;2023-07-29T06:54:32;44.70;;;31.83;;
5279;SDS011;2663;53.588;10.010;2023-07-29T06:56:58;48.77;;;35.77;;
5279;SDS011;2663;53.588;10.010;2023-07-29T06:59:25;50.97;;;33.90;;
5279;SDS011;2663;53.588;10.010;2023-07-29T07:01:52;42.70;;;31.97;;
5279;SDS011;2663;53.588;10.010;2023-07-29T07:04:19;43.37;;;31.97;;
5279;SDS011;2663;53.588;10.010;2023-07-29T07:06:45;46.50;;;30.27;;
5279;SDS011;2663;53.588;10.010;2023-07-29T07:09:12;48.40;;;29.93;;
5279;SDS011;2663;53.588;10.010;2023-07-29T07:11:39;41.73;;;27.10;;
5279;SDS011;2663;53.588;10.010;2023-07-29T07:14:06;38.87;;;27.80;;
5279;SDS011;2663;53.588;10.010;2023-07-29T07:16:32;43.17;;;28.67;;
5279;SDS011;2663;53.588;10.010;2023-07-29T07:18:59;42.93;;;28.00;;
5279;SDS011;2663;53.588;10.010;2023-07-29T07:21:26;37.73;;;27.80;;
5279;SDS011;2663;53.588;10.010;2023-07-29T07:23:53;39.83;;;28.20;;
5279;SDS011;2663;53.588;10.010;2023-07-29T07:26:19;36.30;;;27.37;;
5279;SDS011;2663;53.588;10.010;2023-07-29T07:28:46;38.13;;;28.37;;
5279;SDS011;2663;53.588;10.010;2023-07-29T07:31:13;43.30;;;28.57;;
5279;SDS011;2663;53.588;10.010;2023-07-29T07:33:39;40.53;;;30.00;;
5279;SDS011;2663;53.588;10.010;2023-07-29T07:36:06;41.50;;;28.63;;
5279;SDS011;2663;53.588;10.010;2023-07-29T07:38:33;41.40;;;29.87;;
5279;SDS011;2663;53.588;10.010;2023-07-29T07:41:00;44.27;;;28.53;;
5279;SDS011;2663;53.588;10.010;2023-07-29T07:43:27;40.80;;;29.43;;
5279;SDS011;2663;53.588;10.010;2023-07-29T07:46:00;52.20;;;29.70;;
5279;SDS011;2663;53.588;10.010;2023-07-29T07:48:27;42.23;;;29.40;;
5279;SDS011;2663;53.588;10.010;2023-07-29T07:50:54;40.00;;;28.30;;
5279;SDS011;2663;53.588;10.010;2023-07-29T07:53:21;42.20;;;29.87;;
5279;SDS011;2663;53.588;10.010;2023-07-29T07:55:48;36.73;;;26.43;;
5279;SDS011;2663;53.588;10.010;2023-07-29T07:58:14;41.83;;;29.60;;
5279;SDS011;2663;53.588;10.010;2023-07-29T08:00:41;44.13;;;28.77;;
5279;SDS011;2663;53.588;10.010;2023-07-29T08:03:08;39.73;;;26.77;;
5279;SDS011;2663;53.588;10.010;2023-07-29T08:05:35;38.80;;;27.00;;
5279;SDS011;2663;53.588;10.010;2023-07-29T08:08:02;35.13;;;23.00;;
5279;SDS011;2663;53.588;10.010;2023-07-29T08:10:29;32.30;;;23.20;;
5279;SDS011;2663;53.588;10.010;2023-07-29T08:12:55;31.30;;;22.13;;
5279;SDS011;2663;53.588;10.010;2023-07-29T08:15:22;30.23;;;21.10;;
5279;SDS011;2663;53.588;10.010;2023-07-29T08:17:49;27.33;;;20.20;;
5279;SDS011;2663;53.588;10.010;2023-07-29T08:20:16;29.27;;;20.80;;
5279;SDS011;2663;53.588;10.010;2023-07-29T08:22:43;32.20;;;22.20;;
5279;SDS011;2663;53.588;10.010;2023-07-29T08:25:09;30.10;;;22.53;;
5279;SDS011;2663;53.588;10.010;2023-07-29T08:27:36;32.17;;;22.53;;
5279;SDS011;2663;53.588;10.010;2023-07-29T08:30:03;25.80;;;20.00;;
5279;SDS011;2663;53.588;10.010;2023-07-29T08:32:30;29.43;;;20.17;;
5279;SDS011;2663;53.588;10.010;2023-07-29T08:34:58;32.20;;;17.67;;
5279;SDS011;2663;53.588;10.010;2023-07-29T08:37:26;26.70;;;20.77;;
5279;SDS011;2663;53.588;10.010;2023-07-29T08:39:53;25.23;;;18.60;;
5279;SDS011;2663;53.588;10.010;2023-07-29T08:42:20;23.97;;;19.47;;
5279;SDS011;2663;53.588;10.010;2023-07-29T08:44:49;28.00;;;20.07;;
5279;SDS011;2663;53.588;10.010;2023-07-29T08:47:17;24.80;;;19.17;;
5279;SDS011;2663;53.588;10.010;2023-07-29T08:49:45;27.73;;;19.93;;
5279;SDS011;2663;53.588;10.010;2023-07-29T08:52:13;25.90;;;18.43;;
5279;SDS011;2663;53.588;10.010;2023-07-29T08:54:41;36.90;;;19.03;;
5279;SDS011;2663;53.588;10.010;2023-07-29T08:57:08;28.70;;;20.53;;
5279;SDS011;2663;53.588;10.010;2023-07-29T08:59:36;25.33;;;19.30;;
5279;SDS011;2663;53.588;10.010;2023-07-29T09:02:03;31.80;;;21.37;;
5279;SDS011;2663;53.588;10.010;2023-07-29T09:04:30;27.27;;;20.10;;
5279;SDS011;2663;53.588;10.010;2023-07-29T09:06:57;27.43;;;20.60;;
5279;SDS011;2663;53.588;10.010;2023-07-29T09:09:25;29.00;;;20.37;;
5279;SDS011;2663;53.588;10.010;2023-07-29T09:11:52;26.23;;;20.53;;
5279;SDS011;2663;53.588;10.010;2023-07-29T09:14:19;28.90;;;20.80;;
5279;SDS011;2663;53.588;10.010;2023-07-29T09:16:46;29.90;;;22.23;;
5279;SDS011;2663;53.588;10.010;2023-07-29T09:19:13;31.90;;;22.80;;
5279;SDS011;2663;53.588;10.010;2023-07-29T09:21:40;27.13;;;20.40;;
5279;SDS011;2663;53.588;10.010;2023-07-29T09:24:07;28.73;;;21.37;;
5279;SDS011;2663;53.588;10.010;2023-07-29T09:26:35;23.87;;;20.27;;
5279;SDS011;2663;53.588;10.010;2023-07-29T09:29:03;27.37;;;20.27;;
5279;SDS011;2663;53.588;10.010;2023-07-29T09:31:29;24.33;;;20.00;;
5279;SDS011;2663;53.588;10.010;2023-07-29T09:34:00;23.87;;;19.53;;
5279;SDS011;2663;53.588;10.010;2023-07-29T09:36:32;25.20;;;19.67;;
5279;SDS011;2663;53.588;10.010;2023-07-29T09:39:01;25.30;;;19.20;;
5279;SDS011;2663;53.588;10.010;2023-07-29T09:41:29;24.73;;;18.87;;
5279;SDS011;2663;53.588;10.010;2023-07-29T09:44:00;21.63;;;17.43;;
5279;SDS011;2663;53.588;10.010;2023-07-29T09:46:33;23.10;;;16.90;;
5279;SDS011;2663;53.588;10.010;2023-07-29T09:49:02;26.10;;;17.40;;
5279;SDS011;2663;53.588;10.010;2023-07-29T09:51:30;27.63;;;17.27;;
5279;SDS011;2663;53.588;10.010;2023-07-29T09:53:57;21.90;;;17.47;;
5279;SDS011;2663;53.588;10.010;2023-07-29T09:56:25;22.53;;;16.10;;
5279;SDS011;2663;53.588;10.010;2023-07-29T09:58:55;19.47;;;14.50;;
5279;SDS011;2663;53.588;10.010;2023-07-29T10:01:23;18.30;;;14.07;;
5279;SDS011;2663;53.588;10.010;2023-07-29T10:03:50;11.10;;;9.90;;
5279;SDS011;2663;53.588;10.010;2023-07-29T10:06:18;8.60;;;7.80;;
5279;SDS011;2663;53.588;10.010;2023-07-29T10:08:45;10.97;;;9.37;;
5279;SDS011;2663;53.588;10.010;2023-07-29T10:11:13;9.10;;;8.20;;
5279;SDS011;2663;53.588;10.010;2023-07-29T10:13:40;11.00;;;8.43;;
5279;SDS011;2663;53.588;10.010;2023-07-29T10:16:13;8.17;;;6.27;;
5279;SDS011;2663;53.588;10.010;2023-07-29T10:18:40;13.00;;;6.97;;
5279;SDS011;2663;53.588;10.010;2023-07-29T10:21:09;12.03;;;7.90;;
5279;SDS011;2663;53.588;10.010;2023-07-29T10:23:37;8.13;;;7.27;;
5279;SDS011;2663;53.588;10.010;2023-07-29T10:26:09;11.80;;;7.43;;
5279;SDS011;2663;53.588;10.010;2023-07-29T10:28:39;9.57;;;8.10;;
5279;SDS011;2663;53.588;10.010;2023-07-29T10:31:08;9.57;;;6.80;;
5279;SDS011;2663;53.588;10.010;2023-07-29T10:33:36;7.97;;;6.30;;
5279;SDS011;2663;53.588;10.010;2023-07-29T10:36:04;6.70;;;5.63;;
5279;SDS011;2663;53.588;10.010;2023-07-29T10:38:31;6.70;;;5.77;;
5279;SDS011;2663;53.588;10.010;2023-07-29T10:40:59;7.90;;;5.90;;
5279;SDS011;2663;53.588;10.010;2023-07-29T10:43:28;12.47;;;5.77;;
5279;SDS011;2663;53.588;10.010;2023-07-29T10:46:18;8.50;;;6.43;;
5279;SDS011;2663;53.588;10.010;2023-07-29T10:48:55;6.73;;;5.90;;
5279;SDS011;2663;53.588;10.010;2023-07-29T10:53:56;6.83;;;6.17;;
5279;SDS011;2663;53.588;10.010;2023-07-29T10:56:34;6.20;;;5.60;;
5279;SDS011;2663;53.588;10.010;2023-07-29T10:59:23;9.30;;;5.60;;
5279;SDS011;2663;53.588;10.010;2023-07-29T11:01:59;5.80;;;5.20;;
5279;SDS011;2663;53.588;10.010;2023-07-29T11:04:27;6.30;;;4.87;;
5279;SDS011;2663;53.588;10.010;2023-07-29T11:09:51;5.43;;;4.93;;
5279;SDS011;2663;53.588;10.010;2023-07-29T11:17:38;6.30;;;5.13;;
5279;SDS011;2663;53.588;10.010;2023-07-29T11:20:12;8.33;;;5.00;;
5279;SDS011;2663;53.588;10.010;2023-07-29T11:22:40;9.00;;;5.17;;
5279;SDS011;2663;53.588;10.010;2023-07-29T11:25:07;8.43;;;4.83;;
5279;SDS011;2663;53.588;10.010;2023-07-29T11:27:36;4.77;;;4.23;;
5279;SDS011;2663;53.588;10.010;2023-07-29T11:30:05;9.03;;;4.60;;
5279;SDS011;2663;53.588;10.010;2023-07-29T11:32:33;3.90;;;3.50;;
5279;SDS011;2663;53.588;10.010;2023-07-29T11:35:22;3.67;;;3.03;;
5279;SDS011;2663;53.588;10.010;2023-07-29T11:37:48;6.17;;;3.90;;
5279;SDS011;2663;53.588;10.010;2023-07-29T11:40:17;3.00;;;2.80;;
5279;SDS011;2663;53.588;10.010;2023-07-29T11:42:45;6.73;;;2.73;;
5279;SDS011;2663;53.588;10.010;2023-07-29T11:45:13;2.77;;;2.57;;
5279;SDS011;2663;53.588;10.010;2023-07-29T11:47:43;3.97;;;3.20;;
5279;SDS011;2663;53.588;10.010;2023-07-29T11:50:11;9.93;;;3.30;;
5279;SDS011;2663;53.588;10.010;2023-07-29T11:52:42;3.80;;;3.13;;
5279;SDS011;2663;53.588;10.010;2023-07-29T11:55:11;6.63;;;3.50;;
5279;SDS011;2663;53.588;10.010;2023-07-29T11:57:40;3.80;;;3.33;;
5279;SDS011;2663;53.588;10.010;2023-07-29T12:00:09;4.57;;;3.90;;
5279;SDS011;2663;53.588;10.010;2023-07-29T12:02:39;6.83;;;3.50;;
5279;SDS011;2663;53.588;10.010;2023-07-29T12:05:08;3.73;;;3.30;;
5279;SDS011;2663;53.588;10.010;2023-07-29T12:07:38;4.17;;;3.53;;
5279;SDS011;2663;53.588;10.010;2023-07-29T12:10:05;11.13;;;3.80;;
5279;SDS011;2663;53.588;10.010;2023-07-29T12:12:33;7.00;;;3.63;;
5279;SDS011;2663;53.588;10.010;2023-07-29T12:15:03;11.80;;;5.40;;
5279;SDS011;2663;53.588;10.010;2023-07-29T12:17:31;3.57;;;3.27;;
5279;SDS011;2663;53.588;10.010;2023-07-29T12:20:04;3.40;;;3.10;;
5279;SDS011;2663;53.588;10.010;2023-07-29T12:22:35;3.80;;;2.77;;
5279;SDS011;2663;53.588;10.010;2023-07-29T12:25:02;3.80;;;3.50;;
5279;SDS011;2663;53.588;10.010;2023-07-29T12:27:30;2.70;;;2.50;;
5279;SDS011;2663;53.588;10.010;2023-07-29T12:29:57;2.97;;;2.67;;
5279;SDS011;2663;53.588;10.010;2023-07-29T12:32:29;3.00;;;2.67;;
5279;SDS011;2663;53.588;10.010;2023-07-29T12:34:56;4.47;;;2.67;;
5279;SDS011;2663;53.588;10.010;2023-07-29T12:37:30;3.63;;;2.50;;
5279;SDS011;2663;53.588;10.010;2023-07-29T12:39:58;2.93;;;1.93;;
5279;SDS011;2663;53.588;10.010;2023-07-29T12:42:25;3.03;;;2.70;;
5279;SDS011;2663;53.588;10.010;2023-07-29T12:44:52;2.60;;;2.40;;
5279;SDS011;2663;53.588;10.010;2023-07-29T12:47:18;6.20;;;2.43;;
5279;SDS011;2663;53.588;10.010;2023-07-29T12:49:45;2.67;;;2.47;;
5279;SDS011;2663;53.588;10.010;2023-07-29T12:52:12;2.77;;;2.57;;
5279;SDS011;2663;53.588;10.010;2023-07-29T12:54:38;2.83;;;2.50;;
5279;SDS011;2663;53.588;10.010;2023-07-29T12:57:06;2.13;;;2.03;;
5279;SDS011;2663;53.588;10.010;2023-07-29T12:59:33;2.13;;;2.03;;
5279;SDS011;2663;53.588;10.010;2023-07-29T13:01:59;4.23;;;1.33;;
5279;SDS011;2663;53.588;10.010;2023-07-29T13:04:26;2.73;;;1.80;;
5279;SDS011;2663;53.588;10.010;2023-07-29T13:06:53;2.37;;;2.17;;
5279;SDS011;2663;53.588;10.010;2023-07-29T13:09:19;2.40;;;2.20;;
5279;SDS011;2663;53.588;10.010;2023-07-29T13:11:46;2.30;;;1.90;;
5279;SDS011;2663;53.588;10.010;2023-07-29T13:14:13;2.03;;;1.80;;
5279;SDS011;2663;53.588;10.010;2023-07-29T13:16:39;3.73;;;2.30;;
5279;SDS011;2663;53.588;10.010;2023-07-29T13:19:07;1.93;;;1.83;;
5279;SDS011;2663;53.588;10.010;2023-07-29T13:21:33;3.90;;;2.03;;
5279;SDS011;2663;53.588;10.010;2023-07-29T13:24:00;1.80;;;1.70;;
5279;SDS011;2663;53.588;10.010;2023-07-29T13:26:27;2.33;;;2.10;;
5279;SDS011;2663;53.588;10.010;2023-07-29T13:28:53;2.87;;;2.13;;
5279;SDS011;2663;53.588;10.010;2023-07-29T13:31:21;3.33;;;2.17;;
5279;SDS011;2663;53.588;10.010;2023-07-29T13:33:48;6.27;;;1.87;;
5279;SDS011;2663;53.588;10.010;2023-07-29T13:36:15;2.63;;;2.40;;
5279;SDS011;2663;53.588;10.010;2023-07-29T13:38:42;2.00;;;1.90;;
5279;SDS011;2663;53.588;10.010;2023-07-29T13:41:08;1.60;;;1.50;;
5279;SDS011;2663;53.588;10.010;2023-07-29T13:43:35;2.47;;;2.17;;
5279;SDS011;2663;53.588;10.010;2023-07-29T13:46:01;9.33;;;2.40;;
5279;SDS011;2663;53.588;10.010;2023-07-29T13:48:28;2.73;;;1.90;;
5279;SDS011;2663;53.588;10.010;2023-07-29T13:50:55;2.60;;;2.13;;
5279;SDS011;2663;53.588;10.010;2023-07-29T13:53:22;5.60;;;2.37;;
5279;SDS011;2663;53.588;10.010;2023-07-29T13:55:48;5.23;;;2.90;;
5279;SDS011;2663;53.588;10.010;2023-07-29T13:58:15;4.10;;;1.97;;
5279;SDS011;2663;53.588;10.010;2023-07-29T14:00:42;1.67;;;1.57;;
5279;SDS011;2663;53.588;10.010;2023-07-29T14:03:09;2.37;;;2.00;;
5279;SDS011;2663;53.588;10.010;2023-07-29T14:05:35;1.80;;;1.70;;
5279;SDS011;2663;53.588;10.010;2023-07-29T14:08:02;3.60;;;2.20;;
5279;SDS011;2663;53.588;10.010;2023-07-29T14:10:29;3.07;;;2.20;;
5279;SDS011;2663;53.588;10.010;2023-07-29T14:12:56;2.70;;;2.00;;
5279;SDS011;2663;53.588;10.010;2023-07-29T14:15:22;2.00;;;1.83;;
5279;SDS011;2663;53.588;10.010;2023-07-29T14:17:49;1.80;;;1.60;;
5279;SDS011;2663;53.588;10.010;2023-07-29T14:20:16;7.37;;;1.83;;
5279;SDS011;2663;53.588;10.010;2023-07-29T14:22:45;2.30;;;2.10;;
5279;SDS011;2663;53.588;10.010;2023-07-29T14:25:11;20.43;;;2.40;;
5279;SDS011;2663;53.588;10.010;2023-07-29T14:27:38;2.23;;;2.10;;
5279;SDS011;2663;53.588;10.010;2023-07-29T14:30:05;6.73;;;2.30;;
5279;SDS011;2663;53.588;10.010;2023-07-29T14:32:33;3.67;;;2.40;;
5279;SDS011;2663;53.588;10.010;2023-07-29T14:34:59;2.10;;;1.73;;
5279;SDS011;2663;53.588;10.010;2023-07-29T14:37:30;2.40;;;2.00;;
5279;SDS011;2663;53.588;10.010;2023-07-29T14:40:00;1.90;;;1.80;;
5279;SDS011;2663;53.588;10.010;2023-07-29T14:42:27;2.40;;;2.20;;
5279;SDS011;2663;53.588;10.010;2023-07-29T14:44:54;3.30;;;2.50;;
5279;SDS011;2663;53.588;10.010;2023-07-29T14:47:21;4.70;;;2.80;;
5279;SDS011;2663;53.588;10.010;2023-07-29T14:49:48;3.43;;;2.10;;
5279;SDS011;2663;53.588;10.010;2023-07-29T14:52:14;2.43;;;2.23;;
5279;SDS011;2663;53.588;10.010;2023-07-29T14:54:41;9.73;;;2.37;;
5279;SDS011;2663;53.588;10.010;2023-07-29T14:57:09;1.87;;;1.77;;
5279;SDS011;2663;53.588;10.010;2023-07-29T14:59:36;4.97;;;2.20;;
5279;SDS011;2663;53.588;10.010;2023-07-29T15:02:03;4.83;;;1.90;;
5279;SDS011;2663;53.588;10.010;2023-07-29T15:04:30;3.53;;;2.00;;
5279;SDS011;2663;53.588;10.010;2023-07-29T15:06:56;1.77;;;1.50;;